createdAt,value
2023-03-27T00:02:06.229Z,5.14
2023-03-27T00:04:32.834Z,5.23
2023-03-27T00:06:59.562Z,5.31
2023-03-27T00:09:27.827Z,5.30
2023-03-27T00:11:56.180Z,5.27
2023-03-27T00:14:24.033Z,5.27
2023-03-27T00:16:51.035Z,5.30
2023-03-27T00:19:18.891Z,5.29
2023-03-27T00:21:45.458Z,5.20
2023-03-27T00:24:12.105Z,5.12
2023-03-27T00:26:40.417Z,5.08
2023-03-27T00:29:07.951Z,5.17
2023-03-27T00:31:34.905Z,5.06
2023-03-27T00:34:01.844Z,5.18
2023-03-27T00:36:28.374Z,5.04
2023-03-27T00:38:54.887Z,5.01
2023-03-27T00:41:21.820Z,5.00
2023-03-27T00:43:48.998Z,5.06
2023-03-27T00:46:15.453Z,5.09
2023-03-27T00:48:42.543Z,5.07
2023-03-27T00:51:09.150Z,5.11
2023-03-27T00:53:36.085Z,5.10
2023-03-27T00:56:04.140Z,5.21
2023-03-27T00:58:38.430Z,5.14
2023-03-27T01:01:05.119Z,5.26
2023-03-27T01:03:32.284Z,5.23
2023-03-27T01:06:01.631Z,5.26
2023-03-27T01:08:33.651Z,5.22
2023-03-27T01:11:10.164Z,5.11
2023-03-27T01:14:07.520Z,5.26
2023-03-27T01:17:07.565Z,5.17
2023-03-27T01:19:55.294Z,5.11
2023-03-27T01:22:55.633Z,5.17
2023-03-27T01:25:28.217Z,5.18
2023-03-27T01:28:02.701Z,5.12
2023-03-27T01:30:39.347Z,5.13
2023-03-27T01:33:36.315Z,5.16
2023-03-27T01:36:25.984Z,5.19
2023-03-27T01:39:28.349Z,5.18
2023-03-27T01:42:26.382Z,5.26
2023-03-27T01:44:58.547Z,5.25
2023-03-27T01:47:33.698Z,5.31
2023-03-27T01:50:57.845Z,5.27
2023-03-27T01:53:25.401Z,5.37
2023-03-27T01:55:54.229Z,5.37
2023-03-27T01:58:23.078Z,5.31
2023-03-27T02:00:53.631Z,5.21
2023-03-27T02:03:33.672Z,5.23
2023-03-27T02:06:12.801Z,5.20
2023-03-27T02:08:45.118Z,5.11
2023-03-27T02:11:11.688Z,5.14
2023-03-27T02:13:40.826Z,5.27
2023-03-27T02:16:08.907Z,5.28
2023-03-27T02:18:37.683Z,5.31
2023-03-27T02:21:04.503Z,5.21
2023-03-27T02:23:31.019Z,5.28
2023-03-27T02:25:57.713Z,5.28
2023-03-27T02:28:46.851Z,5.21
2023-03-27T02:31:34.102Z,5.18
2023-03-27T02:34:13.248Z,5.15
2023-03-27T02:37:02.370Z,4.99
2023-03-27T02:39:52.694Z,5.00
2023-03-27T02:42:41.392Z,5.07
2023-03-27T02:45:19.933Z,4.98
2023-03-27T02:47:54.894Z,5.10
2023-03-27T02:50:32.095Z,5.01
2023-03-27T02:53:01.030Z,5.00
2023-03-27T02:55:38.965Z,5.03
2023-03-27T02:58:07.447Z,5.04
2023-03-27T03:00:39.513Z,4.91
2023-03-27T03:03:07.181Z,4.88
2023-03-27T03:05:33.813Z,4.97
2023-03-27T03:08:00.347Z,4.99
2023-03-27T03:10:26.874Z,4.96
2023-03-27T03:12:53.367Z,4.90
2023-03-27T03:15:20.169Z,4.84
2023-03-27T03:17:46.675Z,4.84
2023-03-27T03:20:13.504Z,4.96
2023-03-27T03:22:40.054Z,4.88
2023-03-27T03:25:07.647Z,5.00
2023-03-27T03:27:34.164Z,4.97
2023-03-27T03:30:01.009Z,4.99
2023-03-27T03:32:27.558Z,5.04
2023-03-27T03:34:54.112Z,4.96
2023-03-27T03:37:20.701Z,4.92
2023-03-27T03:39:47.165Z,4.92
2023-03-27T03:42:22.465Z,4.99
2023-03-27T03:44:49.786Z,4.96
2023-03-27T03:47:16.654Z,4.85
2023-03-27T03:49:43.159Z,4.81
2023-03-27T03:52:10.020Z,4.69
2023-03-27T03:54:38.582Z,4.56
2023-03-27T03:57:05.244Z,4.50
2023-03-27T03:59:32.112Z,4.34
2023-03-27T04:01:58.671Z,4.19
2023-03-27T04:04:25.447Z,4.06
2023-03-27T04:06:53.040Z,3.94
2023-03-27T04:09:19.726Z,3.89
2023-03-27T04:11:46.929Z,3.79
2023-03-27T04:14:13.542Z,3.72
2023-03-27T04:16:40.219Z,3.67
2023-03-27T04:19:07.077Z,3.60
2023-03-27T04:21:34.177Z,3.57
2023-03-27T04:24:02.653Z,3.55
2023-03-27T04:26:29.625Z,3.57
2023-03-27T04:28:56.279Z,3.58
2023-03-27T04:31:22.758Z,3.51
2023-03-27T04:33:52.256Z,3.41
2023-03-27T04:36:19.176Z,3.29
2023-03-27T04:38:47.872Z,3.17
2023-03-27T04:41:14.470Z,3.08
2023-03-27T04:43:41.825Z,3.02
2023-03-27T04:46:08.566Z,2.97
2023-03-27T04:48:38.323Z,2.97
2023-03-27T04:51:06.105Z,2.96
2023-03-27T04:53:34.659Z,2.91
2023-03-27T04:56:01.194Z,2.80
2023-03-27T04:58:28.388Z,2.72
2023-03-27T05:00:56.324Z,2.67
2023-03-27T05:03:27.825Z,2.58
2023-03-27T05:05:54.493Z,2.53
2023-03-27T05:08:20.989Z,2.52
2023-03-27T05:10:47.720Z,2.49
2023-03-27T05:13:14.261Z,2.48
2023-03-27T05:15:40.911Z,2.45
2023-03-27T05:18:09.122Z,2.45
2023-03-27T05:20:36.080Z,2.45
2023-03-27T05:23:02.612Z,2.51
2023-03-27T05:25:29.396Z,2.52
2023-03-27T05:27:56.335Z,2.51
2023-03-27T05:30:23.611Z,2.48
2023-03-27T05:32:52.562Z,2.53
2023-03-27T05:35:21.289Z,2.52
2023-03-27T05:37:48.580Z,2.55
2023-03-27T05:40:15.683Z,2.58
2023-03-27T05:42:45.412Z,2.55
2023-03-27T05:45:12.298Z,2.59
2023-03-27T05:47:51.928Z,2.57
2023-03-27T05:50:19.687Z,2.56
2023-03-27T05:52:46.387Z,2.52
2023-03-27T05:55:13.931Z,2.52
2023-03-27T05:57:41.130Z,2.55
2023-03-27T06:00:16.518Z,2.53
2023-03-27T06:02:43.691Z,2.55
2023-03-27T06:05:15.104Z,2.52
2023-03-27T06:07:45.295Z,2.49
2023-03-27T06:10:14.406Z,2.49
2023-03-27T06:12:41.613Z,2.50
2023-03-27T06:15:09.382Z,2.52
2023-03-27T06:17:36.395Z,2.49
2023-03-27T06:20:10.604Z,2.49
2023-03-27T06:22:45.629Z,2.48
2023-03-27T06:25:12.139Z,2.52
2023-03-27T06:27:39.174Z,2.50
2023-03-27T06:30:06.279Z,2.54
2023-03-27T06:32:33.129Z,2.57
2023-03-27T06:34:59.661Z,2.62
2023-03-27T06:37:26.184Z,2.59
2023-03-27T06:39:52.678Z,2.56
2023-03-27T06:42:19.179Z,2.52
2023-03-27T06:44:45.981Z,2.52
2023-03-27T06:47:12.880Z,2.46
2023-03-27T06:49:39.461Z,2.43
2023-03-27T06:52:06.752Z,2.45
2023-03-27T06:54:33.729Z,2.40
2023-03-27T06:57:01.587Z,2.22
2023-03-27T06:59:28.142Z,2.02
2023-03-27T07:01:54.693Z,1.93
2023-03-27T07:04:21.297Z,1.94
2023-03-27T07:06:48.895Z,1.86
2023-03-27T07:09:15.594Z,1.85
2023-03-27T07:11:42.468Z,1.87
2023-03-27T07:14:08.983Z,1.87
2023-03-27T07:16:35.684Z,1.91
2023-03-27T07:19:02.647Z,1.94
2023-03-27T07:21:29.541Z,1.80
2023-03-27T07:23:56.129Z,1.88
2023-03-27T07:26:22.621Z,1.91
2023-03-27T07:28:50.451Z,2.01
2023-03-27T07:33:46.422Z,2.28
2023-03-27T07:36:14.112Z,2.34
2023-03-27T07:38:42.421Z,2.35
2023-03-27T07:41:09.249Z,2.61
2023-03-27T07:43:35.878Z,2.49
2023-03-27T07:46:03.273Z,2.84
2023-03-27T07:48:30.460Z,2.75
2023-03-27T07:51:13.340Z,3.01
2023-03-27T07:53:41.677Z,2.96
2023-03-27T07:56:08.825Z,2.93
2023-03-27T07:58:35.435Z,2.99
2023-03-27T08:01:02.589Z,3.08
2023-03-27T08:03:30.554Z,3.32
2023-03-27T08:05:58.924Z,3.18
2023-03-27T08:08:26.107Z,3.34
2023-03-27T08:10:56.786Z,3.38
2023-03-27T08:13:23.753Z,3.58
2023-03-27T08:15:50.254Z,3.60
2023-03-27T08:18:16.779Z,3.65
2023-03-27T08:20:43.281Z,3.55
2023-03-27T08:23:09.873Z,3.60
2023-03-27T08:25:36.417Z,3.62
2023-03-27T08:28:03.041Z,3.54
2023-03-27T08:30:29.935Z,3.54
2023-03-27T08:32:56.865Z,3.44
2023-03-27T08:35:23.440Z,3.46
2023-03-27T08:37:50.077Z,3.61
2023-03-27T08:40:34.577Z,3.52
2023-03-27T08:43:06.096Z,3.47
2023-03-27T08:45:42.875Z,3.41
2023-03-27T08:48:57.636Z,3.72
2023-03-27T08:51:27.416Z,3.42
2023-03-27T08:54:03.106Z,3.30
2023-03-27T08:56:29.620Z,3.41
2023-03-27T08:58:56.149Z,3.43
2023-03-27T09:01:32.080Z,3.48
2023-03-27T09:04:17.595Z,3.57
2023-03-27T09:06:56.557Z,3.78
2023-03-27T09:09:39.228Z,3.65
2023-03-27T09:12:38.940Z,4.03
2023-03-27T09:15:12.066Z,3.93
2023-03-27T09:17:44.019Z,3.58
2023-03-27T09:20:19.594Z,3.92
2023-03-27T09:22:57.984Z,3.78
2023-03-27T09:25:30.178Z,3.69
2023-03-27T09:27:56.998Z,3.51
2023-03-27T09:30:33.757Z,3.82
2023-03-27T09:33:03.812Z,3.87
2023-03-27T09:35:30.403Z,3.52
2023-03-27T09:37:59.945Z,3.55
2023-03-27T09:40:51.568Z,3.61
2023-03-27T09:43:24.421Z,3.55
2023-03-27T09:45:51.663Z,3.67
2023-03-27T09:48:50.438Z,3.79
2023-03-27T09:51:43.047Z,3.85
2023-03-27T09:54:10.160Z,4.14
2023-03-27T09:56:38.761Z,4.46
2023-03-27T09:59:24.208Z,4.35
2023-03-27T10:01:52.712Z,4.25
2023-03-27T10:04:20.929Z,4.77
2023-03-27T10:06:49.455Z,4.96
2023-03-27T10:09:30.233Z,5.54
2023-03-27T10:12:23.210Z,5.17
2023-03-27T10:14:52.426Z,5.08
2023-03-27T10:17:28.274Z,4.80
2023-03-27T10:20:00.428Z,4.73
2023-03-27T10:22:31.957Z,4.50
2023-03-27T10:25:00.280Z,4.52
2023-03-27T10:27:30.463Z,4.52
2023-03-27T10:29:57.694Z,4.82
2023-03-27T10:32:46.507Z,5.22
2023-03-27T10:35:46.059Z,5.44
2023-03-27T10:38:16.948Z,5.98
2023-03-27T10:40:44.801Z,5.25
2023-03-27T10:43:13.249Z,4.78
2023-03-27T10:45:53.468Z,4.81
2023-03-27T10:48:31.738Z,5.41
2023-03-27T10:51:01.528Z,5.85
2023-03-27T10:53:37.405Z,5.23
2023-03-27T10:56:08.899Z,5.28
2023-03-27T10:58:58.376Z,4.90
2023-03-27T11:01:30.398Z,4.63
2023-03-27T11:04:20.863Z,4.96
2023-03-27T11:06:48.597Z,5.00
2023-03-27T11:09:31.037Z,4.78
2023-03-27T11:12:05.887Z,4.93
2023-03-27T11:14:56.984Z,4.26
2023-03-27T11:17:38.888Z,4.62
2023-03-27T11:20:08.479Z,4.80
2023-03-27T11:22:40.832Z,4.68
2023-03-27T11:25:21.282Z,4.86
2023-03-27T11:28:12.884Z,5.04
2023-03-27T11:30:48.442Z,5.35
2023-03-27T11:33:39.313Z,5.36
2023-03-27T11:36:41.564Z,5.85
2023-03-27T11:39:15.240Z,6.19
2023-03-27T11:41:43.798Z,6.41
2023-03-27T11:44:10.680Z,5.87
2023-03-27T11:47:04.020Z,5.71
2023-03-27T11:49:39.493Z,5.78
2023-03-27T11:52:19.450Z,5.84
2023-03-27T11:55:06.787Z,5.58
2023-03-27T11:58:08.573Z,5.88
2023-03-27T12:00:39.208Z,5.66
2023-03-27T12:03:13.899Z,5.25
2023-03-27T12:06:02.046Z,5.00
2023-03-27T12:08:46.092Z,4.81
2023-03-27T12:11:12.705Z,4.93
2023-03-27T12:14:17.732Z,5.37
2023-03-27T12:17:00.255Z,5.04
2023-03-27T12:19:29.750Z,4.99
2023-03-27T12:22:24.710Z,5.99
2023-03-27T12:25:31.042Z,5.39
2023-03-27T12:28:24.006Z,5.82
2023-03-27T12:30:56.863Z,6.10
2023-03-27T12:33:47.088Z,5.80
2023-03-27T12:36:16.439Z,5.84
2023-03-27T12:38:42.994Z,5.47
2023-03-27T12:41:12.898Z,5.07
2023-03-27T12:43:44.675Z,4.83
2023-03-27T12:46:24.447Z,4.76
2023-03-27T12:48:53.944Z,4.81
2023-03-27T12:51:35.426Z,4.59
2023-03-27T12:54:21.667Z,4.83
2023-03-27T12:57:08.092Z,5.02
2023-03-27T12:59:39.545Z,5.52
2023-03-27T13:02:11.670Z,5.48
2023-03-27T13:05:26.151Z,5.54
2023-03-27T13:08:07.121Z,6.74
2023-03-27T13:10:51.486Z,5.79
2023-03-27T13:13:24.608Z,6.32
2023-03-27T13:16:15.912Z,6.52
2023-03-27T13:18:58.755Z,7.39
2023-03-27T13:21:43.663Z,6.60
2023-03-27T13:24:47.925Z,6.65
2023-03-27T13:27:29.610Z,6.65
2023-03-27T13:29:56.131Z,7.91
2023-03-27T13:32:36.457Z,7.23
2023-03-27T13:35:20.209Z,7.39
2023-03-27T13:37:49.413Z,7.82
2023-03-27T13:40:24.365Z,7.97
2023-03-27T13:42:52.518Z,7.69
2023-03-27T13:45:21.920Z,8.01
2023-03-27T13:47:51.179Z,7.60
2023-03-27T13:51:05.916Z,7.89
2023-03-27T13:54:07.570Z,6.42
2023-03-27T13:56:46.327Z,5.53
2023-03-27T13:59:13.002Z,5.07
2023-03-27T14:02:04.528Z,5.47
2023-03-27T14:04:38.231Z,5.64
2023-03-27T14:07:23.612Z,5.68
2023-03-27T14:09:56.413Z,5.56
2023-03-27T14:12:41.513Z,6.31
2023-03-27T14:15:23.690Z,6.61
2023-03-27T14:18:12.172Z,6.11
2023-03-27T14:20:40.371Z,6.48
2023-03-27T14:23:12.914Z,6.66
2023-03-27T14:25:43.854Z,6.50
2023-03-27T14:28:26.181Z,6.46
2023-03-27T14:30:54.898Z,7.29
2023-03-27T14:33:21.685Z,7.41
2023-03-27T14:36:03.782Z,6.87
2023-03-27T14:38:31.407Z,6.50
2023-03-27T14:40:59.123Z,6.55
2023-03-27T14:43:26.635Z,5.29
2023-03-27T14:45:54.418Z,6.01
2023-03-27T14:48:37.966Z,5.64
2023-03-27T14:51:09.443Z,5.12
2023-03-27T14:53:37.177Z,4.95
2023-03-27T14:56:10.630Z,4.96
2023-03-27T14:58:40.511Z,3.49
2023-03-27T15:01:08.270Z,3.11
2023-03-27T15:03:35.530Z,3.23
2023-03-27T15:06:13.397Z,3.36
2023-03-27T15:08:40.018Z,3.75
2023-03-27T15:11:10.937Z,4.00
2023-03-27T15:13:37.496Z,3.94
2023-03-27T15:16:06.551Z,4.07
2023-03-27T15:18:36.074Z,4.42
2023-03-27T15:21:08.771Z,4.06
2023-03-27T15:23:44.966Z,4.29
2023-03-27T15:26:19.145Z,4.29
2023-03-27T15:29:01.568Z,4.19
2023-03-27T15:31:30.061Z,4.20
2023-03-27T15:34:21.163Z,4.20
2023-03-27T15:36:50.791Z,4.06
2023-03-27T15:39:23.917Z,4.07
2023-03-27T15:41:51.689Z,4.12
2023-03-27T15:44:22.314Z,4.19
2023-03-27T15:46:57.006Z,3.92
2023-03-27T15:49:34.927Z,3.82
2023-03-27T15:52:31.502Z,3.61
2023-03-27T15:54:59.920Z,3.30
2023-03-27T15:57:29.256Z,3.05
2023-03-27T16:00:00.176Z,3.03
2023-03-27T16:02:28.121Z,2.94
2023-03-27T16:04:56.107Z,2.82
2023-03-27T16:07:30.368Z,2.67
2023-03-27T16:10:02.694Z,2.79
2023-03-27T16:12:53.464Z,2.74
2023-03-27T16:15:41.920Z,2.55
2023-03-27T16:18:19.458Z,2.37
2023-03-27T16:20:45.937Z,2.40
2023-03-27T16:23:12.481Z,2.56
2023-03-27T16:25:40.799Z,2.54
2023-03-27T16:28:07.779Z,2.42
2023-03-27T16:30:36.128Z,2.43
2023-03-27T16:33:03.375Z,2.47
2023-03-27T16:35:31.872Z,2.57
2023-03-27T16:37:58.552Z,2.57
2023-03-27T16:40:25.305Z,2.56
2023-03-27T16:42:51.778Z,2.59
2023-03-27T16:45:18.248Z,2.63
2023-03-27T16:47:47.077Z,2.62
2023-03-27T16:50:19.070Z,2.72
2023-03-27T16:52:45.870Z,2.64
2023-03-27T16:55:13.855Z,2.57
2023-03-27T16:57:41.704Z,2.58
2023-03-27T17:00:09.646Z,2.52
2023-03-27T17:02:39.171Z,2.48
2023-03-27T17:05:06.880Z,2.55
2023-03-27T17:07:33.517Z,2.50
2023-03-27T17:10:00.037Z,2.49
2023-03-27T17:12:28.646Z,2.48
2023-03-27T17:14:56.186Z,2.41
2023-03-27T17:17:23.612Z,2.35
2023-03-27T17:19:50.378Z,2.41
2023-03-27T17:22:16.846Z,2.44
2023-03-27T17:24:55.425Z,2.50
2023-03-27T17:27:24.038Z,2.48
2023-03-27T17:29:51.261Z,2.24
2023-03-27T17:32:17.783Z,2.10
2023-03-27T17:34:44.257Z,2.03
2023-03-27T17:37:12.459Z,1.96
2023-03-27T17:39:39.160Z,1.80
2023-03-27T17:42:06.523Z,1.79
2023-03-27T17:44:33.073Z,1.73
2023-03-27T17:47:00.474Z,1.71
2023-03-27T17:49:29.472Z,1.68
2023-03-27T17:51:56.169Z,1.64
2023-03-27T17:54:22.698Z,1.62
2023-03-27T17:56:49.339Z,1.58
2023-03-27T17:59:15.883Z,1.58
2023-03-27T18:01:44.551Z,1.62
2023-03-27T18:04:12.132Z,1.57
2023-03-27T18:06:38.773Z,1.43
2023-03-27T18:09:05.243Z,1.42
2023-03-27T18:11:32.394Z,1.42
2023-03-27T18:13:59.073Z,1.34
2023-03-27T18:16:25.866Z,1.13
2023-03-27T18:18:54.780Z,1.12
2023-03-27T18:21:21.690Z,1.10
2023-03-27T18:23:48.165Z,1.02
2023-03-27T18:26:15.150Z,0.97
2023-03-27T18:28:41.735Z,1.17
2023-03-27T18:31:09.622Z,1.07
2023-03-27T18:33:36.317Z,0.88
2023-03-27T18:36:03.052Z,0.88
2023-03-27T18:38:29.615Z,0.88
2023-03-27T18:40:56.847Z,0.85
2023-03-27T18:43:23.812Z,0.81
2023-03-27T18:46:01.052Z,0.80
2023-03-27T18:48:28.291Z,0.86
2023-03-27T18:50:59.213Z,0.83
2023-03-27T18:53:25.910Z,0.81
2023-03-27T18:55:52.777Z,0.81
2023-03-27T18:58:19.722Z,0.76
2023-03-27T19:00:46.374Z,0.75
2023-03-27T19:03:18.031Z,0.73
2023-03-27T19:05:44.985Z,0.75
2023-03-27T19:08:11.628Z,0.68
2023-03-27T19:10:38.493Z,0.63
2023-03-27T19:13:05.061Z,0.61
2023-03-27T19:15:31.910Z,0.54
2023-03-27T19:17:58.551Z,0.60
2023-03-27T19:20:25.611Z,0.58
2023-03-27T19:22:52.163Z,0.60
2023-03-27T19:25:19.699Z,0.56
2023-03-27T19:27:46.234Z,0.54
2023-03-27T19:30:15.239Z,0.52
2023-03-27T19:32:41.851Z,0.47
2023-03-27T19:35:09.336Z,0.52
2023-03-27T19:37:36.714Z,0.48
2023-03-27T19:40:05.409Z,0.59
2023-03-27T19:42:32.022Z,0.60
2023-03-27T19:44:58.512Z,0.54
2023-03-27T19:47:25.086Z,0.60
2023-03-27T19:49:51.560Z,0.73
2023-03-27T19:52:19.739Z,0.82
2023-03-27T19:54:46.475Z,0.80
2023-03-27T19:57:13.052Z,0.82
2023-03-27T19:59:39.619Z,0.85
2023-03-27T20:02:06.670Z,0.86
2023-03-27T20:04:33.193Z,0.99
2023-03-27T20:07:01.677Z,1.01
2023-03-27T20:09:28.243Z,1.13
2023-03-27T20:11:55.068Z,1.09
2023-03-27T20:14:21.633Z,1.07
2023-03-27T20:16:48.269Z,0.95
2023-03-27T20:19:16.670Z,0.91
2023-03-27T20:21:43.474Z,0.87
2023-03-27T20:24:11.590Z,0.87
2023-03-27T20:26:39.266Z,0.79
2023-03-27T20:29:10.336Z,0.81
2023-03-27T20:31:37.072Z,0.80
2023-03-27T20:34:04.710Z,0.76
2023-03-27T20:36:34.683Z,0.70
2023-03-27T20:39:06.113Z,0.64
2023-03-27T20:41:33.703Z,0.66
2023-03-27T20:44:00.161Z,0.78
2023-03-27T20:46:30.380Z,0.63
2023-03-27T20:48:57.046Z,0.71
2023-03-27T20:51:24.202Z,0.75
2023-03-27T20:53:55.657Z,0.72
2023-03-27T20:56:22.555Z,0.74
2023-03-27T20:58:49.043Z,0.75
2023-03-27T21:01:19.304Z,0.76
2023-03-27T21:03:49.593Z,0.77
2023-03-27T21:06:18.508Z,0.73
2023-03-27T21:08:45.337Z,0.74
2023-03-27T21:11:11.828Z,0.77
2023-03-27T21:13:38.396Z,0.83
2023-03-27T21:16:05.283Z,0.86
2023-03-27T21:18:31.780Z,0.86
2023-03-27T21:20:58.315Z,0.86
2023-03-27T21:23:24.758Z,0.87
2023-03-27T21:25:51.730Z,0.91
2023-03-27T21:28:18.333Z,0.96
2023-03-27T21:30:47.083Z,0.96
2023-03-27T21:33:17.893Z,0.92
2023-03-27T21:35:47.422Z,0.91
2023-03-27T21:38:15.385Z,0.92
2023-03-27T21:40:41.982Z,0.93
2023-03-27T21:43:08.983Z,0.96
2023-03-27T21:45:36.112Z,0.99
2023-03-27T21:48:02.735Z,0.97
2023-03-27T21:50:29.383Z,0.97
2023-03-27T21:52:55.844Z,0.92
2023-03-27T21:55:22.341Z,0.90
2023-03-27T21:57:48.847Z,0.90
2023-03-27T22:00:15.746Z,0.89
2023-03-27T22:02:42.675Z,0.83
2023-03-27T22:05:09.625Z,0.80
2023-03-27T22:07:36.135Z,0.75
2023-03-27T22:10:05.366Z,0.64
2023-03-27T22:12:34.814Z,0.70
2023-03-27T22:15:01.325Z,0.65
2023-03-27T22:17:27.933Z,0.62
2023-03-27T22:19:54.701Z,0.55
2023-03-27T22:22:21.257Z,0.54
2023-03-27T22:24:47.722Z,0.55
2023-03-27T22:27:14.234Z,0.45
2023-03-27T22:29:40.711Z,0.48
2023-03-27T22:32:07.214Z,0.51
2023-03-27T22:34:34.307Z,0.44
2023-03-27T22:37:01.693Z,0.35
2023-03-27T22:39:28.300Z,0.36
2023-03-27T22:41:54.816Z,0.34
2023-03-27T22:44:21.555Z,0.30
2023-03-27T22:46:48.189Z,0.32
2023-03-27T22:49:14.863Z,0.16
2023-03-27T22:51:41.337Z,0.19
2023-03-27T22:54:07.844Z,0.26
2023-03-27T22:56:34.397Z,0.20
2023-03-27T22:59:00.937Z,0.16
2023-03-27T23:01:27.468Z,0.11
2023-03-27T23:03:54.406Z,0.10
2023-03-27T23:06:22.558Z,0.13
2023-03-27T23:08:49.474Z,0.05
2023-03-27T23:11:16.003Z,0.06
2023-03-27T23:13:42.715Z,0.05
2023-03-27T23:16:09.465Z,0.07
2023-03-27T23:18:36.298Z,-0.01
2023-03-27T23:21:10.308Z,-0.03
2023-03-27T23:23:37.486Z,0.03
2023-03-27T23:26:04.796Z,-0.01
2023-03-27T23:28:32.894Z,-0.06
2023-03-27T23:31:04.919Z,-0.11
2023-03-27T23:33:37.142Z,-0.15
2023-03-27T23:36:08.869Z,-0.12
2023-03-27T23:38:35.516Z,-0.13
2023-03-27T23:41:02.185Z,-0.17
2023-03-27T23:43:29.013Z,-0.13
2023-03-27T23:45:56.065Z,-0.12
2023-03-27T23:48:23.208Z,-0.06
2023-03-27T23:50:49.775Z,-0.02
2023-03-27T23:53:16.262Z,-0.09
2023-03-27T23:55:42.744Z,-0.02
2023-03-27T23:58:09.296Z,-0.06
